createdAt,value
2023-04-20T00:02:29.382Z,39.89
2023-04-20T00:05:12.215Z,40.36
2023-04-20T00:07:46.532Z,39.78
2023-04-20T00:10:17.124Z,40.31
2023-04-20T00:12:51.094Z,40.29
2023-04-20T00:15:24.383Z,40.45
2023-04-20T00:17:55.725Z,40.76
2023-04-20T00:20:30.295Z,40.64
2023-04-20T00:26:53.372Z,40.56
2023-04-20T00:29:27.466Z,40.68
2023-04-20T00:32:50.514Z,40.21
2023-04-20T00:35:26.222Z,40.15
2023-04-20T00:38:17.750Z,40.75
2023-04-20T00:41:01.273Z,40.71
2023-04-20T00:43:35.175Z,40.71
2023-04-20T00:46:04.681Z,40.66
2023-04-20T00:48:47.461Z,41.09
2023-04-20T00:54:35.360Z,41.51
2023-04-20T00:57:15.096Z,40.64
2023-04-20T01:00:09.894Z,41.55
2023-04-20T01:03:20.500Z,41.12
2023-04-20T01:06:50.049Z,40.74
2023-04-20T01:09:26.803Z,40.78
2023-04-20T01:12:21.108Z,41.32
2023-04-20T01:14:59.338Z,41.50
2023-04-20T01:18:07.848Z,41.18
2023-04-20T01:21:12.304Z,41.66
2023-04-20T01:24:03.154Z,41.39
2023-04-20T01:26:40.807Z,41.64
2023-04-20T01:29:12.854Z,42.19
2023-04-20T01:31:55.083Z,41.84
2023-04-20T01:34:43.168Z,42.16
2023-04-20T01:37:12.479Z,41.60
2023-04-20T01:47:03.602Z,42.23
2023-04-20T01:49:39.195Z,42.44
2023-04-20T01:52:17.101Z,42.38
2023-04-20T01:58:06.547Z,42.93
2023-04-20T02:01:44.181Z,42.83
2023-04-20T02:04:18.830Z,42.60
2023-04-20T02:07:02.278Z,42.95
2023-04-20T02:12:39.140Z,42.70
2023-04-20T02:18:35.241Z,42.53
2023-04-20T02:21:56.349Z,42.92
2023-04-20T02:24:24.911Z,42.91
2023-04-20T02:27:00.168Z,42.29
2023-04-20T02:29:47.141Z,42.38
2023-04-20T02:32:55.643Z,42.61
2023-04-20T02:35:24.585Z,42.78
2023-04-20T02:38:14.126Z,42.44
2023-04-20T02:41:00.472Z,42.33
2023-04-20T02:47:20.964Z,42.19
2023-04-20T02:50:03.613Z,42.63
2023-04-20T02:53:13.001Z,42.76
2023-04-20T02:55:57.352Z,42.13
2023-04-20T02:59:30.807Z,42.58
2023-04-20T03:02:43.401Z,42.18
2023-04-20T03:12:53.630Z,42.11
2023-04-20T03:15:32.269Z,41.98
2023-04-20T03:19:11.204Z,41.85
2023-04-20T03:21:39.408Z,41.95
2023-04-20T03:24:33.668Z,41.86
2023-04-20T03:30:10.118Z,42.18
2023-04-20T03:32:45.418Z,42.04
2023-04-20T03:38:16.922Z,42.52
2023-04-20T03:44:38.675Z,42.47
2023-04-20T03:47:25.404Z,42.65
2023-04-20T04:03:36.209Z,43.37
2023-04-20T04:08:52.086Z,42.98
2023-04-20T04:15:36.508Z,43.95
2023-04-20T04:21:35.381Z,44.82
2023-04-20T04:24:14.828Z,44.86
2023-04-20T04:28:06.367Z,44.73
2023-04-20T04:30:46.005Z,45.26
2023-04-20T04:33:24.014Z,45.29
2023-04-20T04:36:01.808Z,45.40
2023-04-20T04:41:34.347Z,45.39
2023-04-20T04:44:47.798Z,45.57
2023-04-20T04:47:43.593Z,45.76
2023-04-20T04:51:53.799Z,45.65
2023-04-20T04:54:33.415Z,46.35
2023-04-20T04:57:00.532Z,45.81
2023-04-20T05:10:45.932Z,46.26
2023-04-20T05:13:14.405Z,46.29
2023-04-20T05:15:43.832Z,46.11
2023-04-20T05:18:15.604Z,46.16
2023-04-20T05:20:43.351Z,45.82
2023-04-20T05:23:17.114Z,46.22
2023-04-20T05:25:44.205Z,46.06
2023-04-20T05:28:11.300Z,45.93
2023-04-20T05:30:38.825Z,45.35
2023-04-20T05:33:06.127Z,45.80
2023-04-20T05:35:33.327Z,45.11
2023-04-20T05:38:02.753Z,45.22
2023-04-20T05:40:30.388Z,44.97
2023-04-20T05:43:01.063Z,44.76
2023-04-20T05:45:30.765Z,45.17
2023-04-20T05:48:08.033Z,45.45
2023-04-20T05:50:35.869Z,45.33
2023-04-20T05:53:03.615Z,45.77
2023-04-20T05:55:34.402Z,44.73
2023-04-20T05:58:09.471Z,44.69
2023-04-20T06:00:39.896Z,44.93
2023-04-20T06:03:07.411Z,44.58
2023-04-20T06:05:37.977Z,44.43
2023-04-20T06:08:22.001Z,43.92
2023-04-20T06:10:49.308Z,44.45
2023-04-20T06:13:34.576Z,43.73
2023-04-20T06:16:02.034Z,44.05
2023-04-20T06:18:29.827Z,43.70
2023-04-20T06:20:56.913Z,43.31
2023-04-20T06:23:25.949Z,42.84
2023-04-20T06:25:59.412Z,43.02
2023-04-20T06:28:26.909Z,42.72
2023-04-20T06:30:58.635Z,43.18
2023-04-20T06:33:32.514Z,42.10
2023-04-20T06:36:02.147Z,42.74
2023-04-20T06:38:35.148Z,41.87
2023-04-20T06:41:03.499Z,42.15
2023-04-20T06:43:33.292Z,41.02
2023-04-20T06:46:00.363Z,40.93
2023-04-20T06:48:32.793Z,41.35
2023-04-20T06:51:05.917Z,41.03
2023-04-20T06:53:38.593Z,41.69
2023-04-20T06:56:06.461Z,41.94
2023-04-20T06:58:35.993Z,41.77
2023-04-20T07:01:17.046Z,41.45
2023-04-20T07:03:47.506Z,40.70
2023-04-20T07:06:20.794Z,39.91
2023-04-20T07:08:51.275Z,39.88
2023-04-20T07:11:18.105Z,39.38
2023-04-20T07:13:44.837Z,37.75
2023-04-20T07:16:15.276Z,37.48
2023-04-20T07:18:42.266Z,37.13
2023-04-20T07:21:09.012Z,37.14
2023-04-20T07:23:38.088Z,37.55
2023-04-20T07:26:04.986Z,37.79
2023-04-20T07:28:32.734Z,37.76
2023-04-20T07:31:05.234Z,37.60
2023-04-20T07:33:32.344Z,37.13
2023-04-20T07:35:59.378Z,37.30
2023-04-20T07:38:27.124Z,38.25
2023-04-20T07:40:54.015Z,38.93
2023-04-20T07:43:21.459Z,39.87
2023-04-20T07:45:48.784Z,40.05
2023-04-20T07:48:16.238Z,40.52
2023-04-20T07:50:43.288Z,41.06
2023-04-20T07:53:10.086Z,41.10
2023-04-20T07:55:37.274Z,40.96
2023-04-20T07:58:04.664Z,41.50
2023-04-20T08:00:32.387Z,41.33
2023-04-20T08:03:04.136Z,41.55
2023-04-20T08:05:33.111Z,41.21
2023-04-20T08:08:01.987Z,41.38
2023-04-20T08:10:28.959Z,41.88
2023-04-20T08:12:59.574Z,41.19
2023-04-20T08:15:26.515Z,41.77
2023-04-20T08:17:53.517Z,41.10
2023-04-20T08:20:20.580Z,41.55
2023-04-20T08:22:47.558Z,41.42
2023-04-20T08:25:14.773Z,41.47
2023-04-20T08:27:41.936Z,41.95
2023-04-20T08:30:09.202Z,41.05
2023-04-20T08:32:36.142Z,40.36
2023-04-20T08:35:05.847Z,34.10
2023-04-20T08:37:33.335Z,29.59
2023-04-20T08:40:00.279Z,24.14
2023-04-20T08:42:27.142Z,21.01
2023-04-20T08:44:57.146Z,19.06
2023-04-20T08:47:36.897Z,17.68
2023-04-20T08:50:13.215Z,16.30
2023-04-20T08:53:10.252Z,14.96
2023-04-20T08:56:19.938Z,14.46
2023-04-20T08:58:50.544Z,14.98
2023-04-20T09:01:42.711Z,16.29
2023-04-20T09:04:42.080Z,18.93
2023-04-20T09:07:34.717Z,22.11
2023-04-20T09:10:07.893Z,23.41
2023-04-20T09:12:42.861Z,22.17
2023-04-20T09:15:10.933Z,22.42
2023-04-20T09:17:40.866Z,22.08
2023-04-20T09:20:08.732Z,19.51
2023-04-20T09:22:37.316Z,17.00
2023-04-20T09:25:20.422Z,15.68
2023-04-20T09:27:58.826Z,18.32
2023-04-20T09:30:26.215Z,21.37
2023-04-20T09:33:08.557Z,23.24
2023-04-20T09:35:36.406Z,24.83
2023-04-20T09:38:04.119Z,22.89
2023-04-20T09:40:33.316Z,20.89
2023-04-20T09:43:14.815Z,21.41
2023-04-20T09:45:42.985Z,20.71
2023-04-20T09:48:10.502Z,19.08
2023-04-20T09:50:49.325Z,20.37
2023-04-20T09:53:20.133Z,22.37
2023-04-20T09:55:52.270Z,20.11
2023-04-20T09:58:21.098Z,16.08
2023-04-20T10:00:48.748Z,13.92
2023-04-20T10:03:20.514Z,16.27
2023-04-20T10:05:47.738Z,19.26
2023-04-20T10:08:16.183Z,21.70
2023-04-20T10:10:45.568Z,23.53
2023-04-20T10:13:12.631Z,22.67
2023-04-20T10:15:41.523Z,23.53
2023-04-20T10:18:19.895Z,23.96
2023-04-20T10:20:47.109Z,23.28
2023-04-20T10:23:16.480Z,24.51
2023-04-20T10:25:45.469Z,26.38
2023-04-20T10:28:12.631Z,27.49
2023-04-20T10:30:51.367Z,28.82
2023-04-20T10:33:18.602Z,29.37
2023-04-20T10:35:46.029Z,30.14
2023-04-20T10:38:13.296Z,27.00
2023-04-20T10:40:40.301Z,25.05
2023-04-20T10:43:21.598Z,25.30
2023-04-20T10:45:50.326Z,26.31
2023-04-20T10:48:18.354Z,27.80
2023-04-20T10:50:45.615Z,30.28
2023-04-20T10:53:23.438Z,31.82
2023-04-20T10:56:01.235Z,33.87
2023-04-20T10:58:28.370Z,33.75
2023-04-20T11:01:02.961Z,33.51
2023-04-20T11:03:31.328Z,33.40
2023-04-20T11:06:04.668Z,33.23
2023-04-20T11:08:42.250Z,34.85
2023-04-20T11:11:32.872Z,35.21
2023-04-20T11:14:08.269Z,34.06
2023-04-20T11:16:48.067Z,30.74
2023-04-20T11:19:38.914Z,28.14
2023-04-20T11:22:06.963Z,29.03
2023-04-20T11:24:34.483Z,30.16
2023-04-20T11:27:02.984Z,30.79
2023-04-20T11:29:38.660Z,31.37
2023-04-20T11:32:08.249Z,31.12
2023-04-20T11:34:36.460Z,31.42
2023-04-20T11:37:08.179Z,32.26
2023-04-20T11:39:35.515Z,33.08
2023-04-20T11:42:02.990Z,33.96
2023-04-20T11:44:29.733Z,35.35
2023-04-20T11:46:57.630Z,35.67
2023-04-20T11:49:26.791Z,35.92
2023-04-20T11:51:54.121Z,35.80
2023-04-20T11:54:22.116Z,35.21
2023-04-20T11:56:48.990Z,35.80
2023-04-20T11:59:17.065Z,35.94
2023-04-20T12:01:44.255Z,40.73
2023-04-20T12:04:11.172Z,41.67
2023-04-20T12:06:38.132Z,39.43
2023-04-20T12:09:07.589Z,38.00
2023-04-20T12:11:34.711Z,34.30
2023-04-20T12:14:01.733Z,32.35
2023-04-20T12:16:28.615Z,30.61
2023-04-20T12:18:56.325Z,29.50
2023-04-20T12:21:24.687Z,29.17
2023-04-20T12:23:51.989Z,28.45
2023-04-20T12:26:18.927Z,28.83
2023-04-20T12:28:45.793Z,30.93
2023-04-20T12:31:15.640Z,35.06
2023-04-20T12:33:43.485Z,39.91
2023-04-20T12:36:11.393Z,42.15
2023-04-20T12:38:39.674Z,45.39
2023-04-20T12:41:06.678Z,48.13
2023-04-20T12:43:33.714Z,51.04
2023-04-20T12:46:04.182Z,50.85
2023-04-20T12:48:32.279Z,53.58
2023-04-20T12:50:59.457Z,53.76
2023-04-20T12:53:26.149Z,54.22
2023-04-20T12:56:00.270Z,54.99
2023-04-20T12:58:28.172Z,54.03
2023-04-20T13:00:54.995Z,52.19
2023-04-20T13:03:21.956Z,49.50
2023-04-20T13:05:49.534Z,47.43
2023-04-20T13:08:16.700Z,45.36
2023-04-20T13:10:43.950Z,44.33
2023-04-20T13:13:11.786Z,43.04
2023-04-20T13:15:39.607Z,40.86
2023-04-20T13:18:09.823Z,40.99
2023-04-20T13:20:37.050Z,40.43
2023-04-20T13:23:04.293Z,40.61
2023-04-20T13:25:33.387Z,40.52
2023-04-20T13:28:05.171Z,41.42
2023-04-20T13:30:32.411Z,40.61
2023-04-20T13:33:02.690Z,39.43
2023-04-20T13:35:29.453Z,38.98
2023-04-20T13:37:56.293Z,37.89
2023-04-20T13:40:24.270Z,36.50
2023-04-20T13:42:51.025Z,35.87
2023-04-20T13:45:20.458Z,35.29
2023-04-20T13:47:47.413Z,35.08
2023-04-20T13:50:14.398Z,35.46
2023-04-20T13:52:41.517Z,36.20
2023-04-20T13:55:08.419Z,35.85
2023-04-20T13:57:35.204Z,35.76
2023-04-20T14:00:02.569Z,36.14
2023-04-20T14:02:31.909Z,36.05
2023-04-20T14:04:58.932Z,37.63
2023-04-20T14:07:26.172Z,37.32
2023-04-20T14:09:56.476Z,38.96
2023-04-20T14:12:23.950Z,39.20
2023-04-20T14:14:51.064Z,39.83
2023-04-20T14:17:18.429Z,39.96
2023-04-20T14:19:45.562Z,40.09
2023-04-20T14:22:12.541Z,42.36
2023-04-20T14:24:40.874Z,43.60
2023-04-20T14:27:07.655Z,44.39
2023-04-20T14:29:34.560Z,45.46
2023-04-20T14:32:01.315Z,46.14
2023-04-20T14:34:28.702Z,47.01
2023-04-20T14:36:55.682Z,47.84
2023-04-20T14:39:23.487Z,47.74
2023-04-20T14:41:50.482Z,47.61
2023-04-20T14:44:17.389Z,47.87
2023-04-20T14:46:44.392Z,46.96
2023-04-20T14:49:11.462Z,45.43
2023-04-20T14:51:38.089Z,44.37
2023-04-20T14:54:05.037Z,44.11
2023-04-20T14:56:31.836Z,43.78
2023-04-20T14:58:59.779Z,44.42
2023-04-20T15:01:27.713Z,45.39
2023-04-20T15:03:55.256Z,45.19
2023-04-20T15:06:22.406Z,45.43
2023-04-20T15:08:49.110Z,44.01
2023-04-20T15:11:15.979Z,42.97
2023-04-20T15:13:43.856Z,42.24
2023-04-20T15:16:10.917Z,42.37
2023-04-20T15:18:37.664Z,41.94
2023-04-20T15:21:05.362Z,42.27
2023-04-20T15:23:32.017Z,41.88
2023-04-20T15:26:01.569Z,41.71
2023-04-20T15:28:28.700Z,42.26
2023-04-20T15:30:58.214Z,42.05
2023-04-20T15:33:24.976Z,42.47
2023-04-20T15:35:51.815Z,42.53
2023-04-20T15:38:18.814Z,42.60
2023-04-20T15:40:46.728Z,42.43
2023-04-20T15:43:13.458Z,42.77
2023-04-20T15:45:41.278Z,42.82
2023-04-20T15:48:09.691Z,42.87
2023-04-20T15:50:38.106Z,42.99
2023-04-20T15:53:04.900Z,42.94
2023-04-20T15:55:34.617Z,43.10
2023-04-20T15:58:01.666Z,43.48
2023-04-20T16:00:28.691Z,43.61
2023-04-20T16:02:55.605Z,43.88
2023-04-20T16:05:22.909Z,44.08
2023-04-20T16:08:00.787Z,43.52
2023-04-20T16:10:27.786Z,43.79
2023-04-20T16:12:56.474Z,43.13
2023-04-20T16:15:24.851Z,43.38
2023-04-20T16:17:52.256Z,43.83
2023-04-20T16:20:19.764Z,43.85
2023-04-20T16:22:49.862Z,43.67
2023-04-20T16:25:27.932Z,44.44
2023-04-20T16:27:55.052Z,44.01
2023-04-20T16:30:22.091Z,43.71
2023-04-20T16:32:53.074Z,44.28
2023-04-20T16:35:20.698Z,43.97
2023-04-20T16:38:00.851Z,43.58
2023-04-20T16:40:29.773Z,43.72
2023-04-20T16:43:01.813Z,43.68
2023-04-20T16:45:30.183Z,43.91
2023-04-20T16:47:59.953Z,44.07
2023-04-20T16:50:27.160Z,44.00
2023-04-20T16:52:54.440Z,44.33
2023-04-20T16:55:35.268Z,44.18
2023-04-20T16:58:03.569Z,44.45
2023-04-20T17:00:32.338Z,44.11
2023-04-20T17:03:03.785Z,44.80
2023-04-20T17:05:38.483Z,44.66
2023-04-20T17:08:06.988Z,44.23
2023-04-20T17:10:35.828Z,44.28
2023-04-20T17:13:06.506Z,44.78
2023-04-20T17:15:36.812Z,44.43
2023-04-20T17:18:07.842Z,44.96
2023-04-20T17:20:35.024Z,45.11
2023-04-20T17:23:02.230Z,44.48
2023-04-20T17:25:29.650Z,44.89
2023-04-20T17:27:57.015Z,45.27
2023-04-20T17:30:24.308Z,45.22
2023-04-20T17:33:10.200Z,45.20
2023-04-20T17:35:58.643Z,45.33
2023-04-20T17:38:46.993Z,44.84
2023-04-20T17:41:17.200Z,45.38
2023-04-20T17:43:44.438Z,45.45
2023-04-20T17:46:12.421Z,45.91
2023-04-20T17:48:39.368Z,45.92
2023-04-20T17:51:06.620Z,45.93
2023-04-20T17:53:33.541Z,46.13
2023-04-20T17:56:11.077Z,46.17
2023-04-20T17:58:37.906Z,46.39
2023-04-20T18:01:05.156Z,46.06
2023-04-20T18:03:32.360Z,46.16
2023-04-20T18:05:59.540Z,46.84
2023-04-20T18:08:26.594Z,47.02
2023-04-20T18:10:54.356Z,47.48
2023-04-20T18:13:23.217Z,47.73
2023-04-20T18:15:50.342Z,48.04
2023-04-20T18:18:18.615Z,48.74
2023-04-20T18:20:45.971Z,49.14
2023-04-20T18:23:15.745Z,49.63
2023-04-20T18:25:45.149Z,50.09
2023-04-20T18:28:13.038Z,50.16
2023-04-20T18:30:40.848Z,52.05
2023-04-20T18:33:10.358Z,52.84
2023-04-20T18:35:37.912Z,52.71
2023-04-20T18:38:06.132Z,52.27
2023-04-20T18:40:38.843Z,52.95
2023-04-20T18:43:06.833Z,52.48
2023-04-20T18:45:35.694Z,52.70
2023-04-20T18:48:05.877Z,53.33
2023-04-20T18:50:34.094Z,52.97
2023-04-20T18:53:01.142Z,52.88
2023-04-20T18:55:28.784Z,52.98
2023-04-20T18:57:56.099Z,53.31
2023-04-20T19:00:26.151Z,53.30
2023-04-20T19:02:53.234Z,53.02
2023-04-20T19:05:20.658Z,53.64
2023-04-20T19:07:49.842Z,53.14
2023-04-20T19:10:16.731Z,53.09
2023-04-20T19:12:44.255Z,53.22
2023-04-20T19:15:14.317Z,53.25
2023-04-20T19:17:42.928Z,53.05
2023-04-20T19:20:10.468Z,53.25
2023-04-20T19:22:37.634Z,53.01
2023-04-20T19:25:05.674Z,52.71
2023-04-20T19:27:32.898Z,53.73
2023-04-20T19:30:02.273Z,53.13
2023-04-20T19:32:29.684Z,53.06
2023-04-20T19:34:59.260Z,54.19
2023-04-20T19:37:27.018Z,54.08
2023-04-20T19:39:54.925Z,54.47
2023-04-20T19:42:25.482Z,54.53
2023-04-20T19:44:53.640Z,54.61
2023-04-20T19:47:21.448Z,54.72
2023-04-20T19:49:48.945Z,54.78
2023-04-20T19:52:21.540Z,55.01
2023-04-20T19:54:51.326Z,55.38
2023-04-20T19:57:18.297Z,54.47
2023-04-20T19:59:45.416Z,55.20
2023-04-20T20:02:13.016Z,54.48
2023-04-20T20:04:40.319Z,54.75
2023-04-20T20:07:08.573Z,55.29
2023-04-20T20:09:40.915Z,55.75
2023-04-20T20:12:10.957Z,56.33
2023-04-20T20:14:38.613Z,55.96
2023-04-20T20:17:08.270Z,56.30
2023-04-20T20:19:38.625Z,57.02
2023-04-20T20:22:10.683Z,57.06
2023-04-20T20:24:39.567Z,57.34
2023-04-20T20:27:06.982Z,57.99
2023-04-20T20:29:34.490Z,58.76
2023-04-20T20:32:04.631Z,59.13
2023-04-20T20:34:32.307Z,58.78
2023-04-20T20:36:59.474Z,59.41
2023-04-20T20:39:26.639Z,59.80
2023-04-20T20:41:54.523Z,60.54
2023-04-20T20:44:25.628Z,61.33
2023-04-20T20:46:55.570Z,62.06
2023-04-20T20:49:22.786Z,61.97
2023-04-20T20:51:50.461Z,62.63
2023-04-20T20:54:21.597Z,62.26
2023-04-20T20:56:49.271Z,62.45
2023-04-20T20:59:16.660Z,62.20
2023-04-20T21:01:51.085Z,62.56
2023-04-20T21:04:20.796Z,62.46
2023-04-20T21:06:48.315Z,61.71
2023-04-20T21:09:16.413Z,61.51
2023-04-20T21:11:45.158Z,61.88
2023-04-20T21:14:19.098Z,61.16
2023-04-20T21:16:48.732Z,61.29
2023-04-20T21:19:15.786Z,60.97
2023-04-20T21:21:42.757Z,60.74
2023-04-20T21:24:12.820Z,61.35
2023-04-20T21:26:40.085Z,61.35
2023-04-20T21:29:13.307Z,61.08
2023-04-20T21:31:43.610Z,61.36
2023-04-20T21:34:14.797Z,61.25
2023-04-20T21:36:42.598Z,61.19
2023-04-20T21:39:10.130Z,61.63
2023-04-20T21:41:47.017Z,61.78
2023-04-20T21:44:15.787Z,62.19
2023-04-20T21:46:43.852Z,62.54
2023-04-20T21:49:11.081Z,62.98
2023-04-20T21:51:38.904Z,62.69
2023-04-20T21:54:09.037Z,63.47
2023-04-20T21:56:39.452Z,63.65
2023-04-20T21:59:06.928Z,64.07
2023-04-20T22:01:36.976Z,64.45
2023-04-20T22:04:13.933Z,64.41
2023-04-20T22:06:41.736Z,64.05
2023-04-20T22:09:11.978Z,63.92
2023-04-20T22:11:39.829Z,64.08
2023-04-20T22:14:08.443Z,63.39
2023-04-20T22:16:39.170Z,63.30
2023-04-20T22:19:15.634Z,62.78
2023-04-20T22:21:43.994Z,63.47
2023-04-20T22:24:11.516Z,63.56
2023-04-20T22:26:42.002Z,63.16
2023-04-20T22:29:09.056Z,63.21
2023-04-20T22:31:37.670Z,64.35
2023-04-20T22:34:10.671Z,64.35
2023-04-20T22:36:42.289Z,64.55
2023-04-20T22:39:09.808Z,64.78
2023-04-20T22:41:45.600Z,64.49
2023-04-20T22:44:18.530Z,65.04
2023-04-20T22:46:47.026Z,65.45
2023-04-20T22:52:08.806Z,65.47
2023-04-20T22:54:37.930Z,65.41
2023-04-20T22:57:05.276Z,65.28
2023-04-20T22:59:32.498Z,66.13
2023-04-20T23:01:59.556Z,65.68
2023-04-20T23:04:27.238Z,66.01
2023-04-20T23:06:56.048Z,66.07
2023-04-20T23:09:25.945Z,66.17
2023-04-20T23:12:01.850Z,66.25
2023-04-20T23:14:28.781Z,66.21
2023-04-20T23:16:55.685Z,66.51
2023-04-20T23:19:22.767Z,66.55
2023-04-20T23:21:50.016Z,67.05
2023-04-20T23:24:19.588Z,67.33
2023-04-20T23:26:47.089Z,66.72
2023-04-20T23:29:15.314Z,66.88
2023-04-20T23:31:42.396Z,67.37
2023-04-20T23:34:09.443Z,67.33
2023-04-20T23:36:39.991Z,67.45
2023-04-20T23:39:07.112Z,67.19
2023-04-20T23:41:34.511Z,67.41
2023-04-20T23:44:02.915Z,67.74
2023-04-20T23:46:30.544Z,68.21
2023-04-20T23:49:00.920Z,68.03
2023-04-20T23:51:30.125Z,68.13
2023-04-20T23:53:58.618Z,67.72
2023-04-20T23:56:26.559Z,67.95
2023-04-20T23:58:59.645Z,68.05
